Time;durP1;ratioP1;P1;durP2;ratioP2;P2;SDS_P1;SDS_P2;PMS_P1;PMS_P2;Temp;Humidity;BMP_temperature;BMP_pressure;BME280_temperature;BME280_humidity;BME280_pressure;Samples;Min_cycle;Max_cycle;Signal;HPM_P1;HPM_P2
2023/07/16 00:01:22;;;;;;;28.02;7.63;;;;;;;;;;5048387;28;20699;-68
2023/07/16 00:03:47;;;;;;;33.63;8.52;;;;;;;;;;5018632;28;22282;-71
2023/07/16 00:06:13;;;;;;;30.25;8.68;;;;;;;;;;5046546;28;24613;-72
2023/07/16 00:08:38;;;;;;;42.88;10.15;;;;;;;;;;5017669;28;20119;-74
2023/07/16 00:11:04;;;;;;;38.90;9.82;;;;;;;;;;5018614;28;20052;-72
2023/07/16 00:13:29;;;;;;;31.83;9.57;;;;;;;;;;5013349;28;20124;-74
2023/07/16 00:15:55;;;;;;;34.72;8.98;;;;;;;;;;5017196;28;20160;-70
2023/07/16 00:18:20;;;;;;;27.83;8.38;;;;;;;;;;5017765;28;20065;-71
2023/07/16 00:20:45;;;;;;;38.28;8.77;;;;;;;;;;5019452;28;20048;-73
2023/07/16 00:23:11;;;;;;;30.10;8.75;;;;;;;;;;5016665;28;20065;-72
2023/07/16 00:25:36;;;;;;;31.45;9.02;;;;;;;;;;5013233;28;20032;-75
2023/07/16 00:28:02;;;;;;;35.75;8.57;;;;;;;;;;5043517;28;20037;-72
2023/07/16 00:30:28;;;;;;;27.05;8.85;;;;;;;;;;5016890;28;20113;-70
2023/07/16 00:32:53;;;;;;;28.23;8.35;;;;;;;;;;5022285;28;20084;-72
2023/07/16 00:35:18;;;;;;;33.03;9.20;;;;;;;;;;5021597;28;20402;-72
2023/07/16 00:37:46;;;;;;;28.13;8.55;;;;;;;;;;5020519;28;20040;-71
2023/07/16 00:40:11;;;;;;;29.15;8.15;;;;;;;;;;5003327;28;20063;-71
2023/07/16 00:42:39;;;;;;;28.90;9.07;;;;;;;;;;5021600;28;20044;-76
2023/07/16 00:45:08;;;;;;;29.67;8.57;;;;;;;;;;5015187;28;20040;-73
2023/07/16 00:47:34;;;;;;;34.53;9.32;;;;;;;;;;5043516;28;20040;-72
2023/07/16 00:49:59;;;;;;;43.65;9.80;;;;;;;;;;5022659;28;20542;-70
2023/07/16 00:52:24;;;;;;;30.80;9.13;;;;;;;;;;5021913;28;20087;-70
2023/07/16 00:54:50;;;;;;;33.60;9.13;;;;;;;;;;5022003;28;20095;-69
2023/07/16 00:57:15;;;;;;;35.25;10.30;;;;;;;;;;5015251;28;20156;-71
2023/07/16 00:59:43;;;;;;;42.53;9.50;;;;;;;;;;5000045;28;20044;-69
2023/07/16 01:02:08;;;;;;;33.45;9.57;;;;;;;;;;5016554;28;20045;-69
2023/07/16 01:04:35;;;;;;;36.55;9.18;;;;;;;;;;5021590;28;20041;-70
2023/07/16 01:07:03;;;;;;;32.08;9.65;;;;;;;;;;5020413;28;20566;-72
2023/07/16 01:09:29;;;;;;;45.42;9.27;;;;;;;;;;5051740;28;20037;-68
2023/07/16 01:11:58;;;;;;;32.85;8.48;;;;;;;;;;5019781;28;20053;-72
2023/07/16 01:14:23;;;;;;;34.85;9.45;;;;;;;;;;5020864;28;22233;-70
2023/07/16 01:16:58;;;;;;;34.42;9.95;;;;;;;;;;5021454;28;20069;-70
2023/07/16 01:19:25;;;;;;;33.40;8.10;;;;;;;;;;5020499;28;20037;-71
2023/07/16 01:22:09;;;;;;;34.17;8.20;;;;;;;;;;5052508;28;20517;-73
2023/07/16 01:24:50;;;;;;;32.72;8.65;;;;;;;;;;5020677;28;20490;-76
2023/07/16 01:27:16;;;;;;;27.35;8.15;;;;;;;;;;5000390;28;20048;-68
2023/07/16 01:30:04;;;;;;;37.72;9.23;;;;;;;;;;5026871;28;20037;-72
2023/07/16 01:32:34;;;;;;;32.70;9.02;;;;;;;;;;5017836;28;20144;-70
2023/07/16 01:34:59;;;;;;;33.92;9.30;;;;;;;;;;5018576;28;20036;-72
2023/07/16 01:37:25;;;;;;;33.28;8.38;;;;;;;;;;5012764;28;20036;-68
2023/07/16 01:39:50;;;;;;;26.70;8.07;;;;;;;;;;5014793;28;20040;-69
2023/07/16 01:42:16;;;;;;;43.20;11.80;;;;;;;;;;5022235;28;20036;-69
2023/07/16 01:44:41;;;;;;;32.42;9.57;;;;;;;;;;5031334;28;21447;-68
2023/07/16 01:47:07;;;;;;;33.65;11.18;;;;;;;;;;5050678;28;20059;-72
2023/07/16 01:49:32;;;;;;;33.28;10.77;;;;;;;;;;5018279;28;20055;-67
2023/07/16 01:51:58;;;;;;;34.03;9.63;;;;;;;;;;5016741;28;20041;-70
2023/07/16 01:54:23;;;;;;;48.03;11.40;;;;;;;;;;5020702;28;20060;-70
2023/07/16 01:56:48;;;;;;;39.00;10.23;;;;;;;;;;5017516;28;20040;-72
2023/07/16 01:59:16;;;;;;;41.90;10.80;;;;;;;;;;5019255;28;20135;-70
2023/07/16 02:01:41;;;;;;;34.92;10.10;;;;;;;;;;5018590;28;22218;-71
2023/07/16 02:04:09;;;;;;;48.20;10.73;;;;;;;;;;5019282;28;20034;-69
2023/07/16 02:06:35;;;;;;;37.50;9.95;;;;;;;;;;5017655;28;20087;-71
2023/07/16 02:09:00;;;;;;;32.50;9.05;;;;;;;;;;5019944;28;20063;-74
2023/07/16 02:11:26;;;;;;;38.97;9.32;;;;;;;;;;5019976;28;20679;-70
2023/07/16 02:13:51;;;;;;;35.42;9.65;;;;;;;;;;5017484;28;20122;-73
2023/07/16 02:16:16;;;;;;;35.22;9.93;;;;;;;;;;5018038;28;20954;-71
2023/07/16 02:18:42;;;;;;;31.38;9.25;;;;;;;;;;5018703;28;20036;-69
2023/07/16 02:21:07;;;;;;;32.08;9.02;;;;;;;;;;5015456;28;20037;-69
2023/07/16 02:23:34;;;;;;;27.88;7.78;;;;;;;;;;5020753;28;20112;-70
2023/07/16 02:26:00;;;;;;;36.47;9.00;;;;;;;;;;5050259;28;20033;-70
2023/07/16 02:28:26;;;;;;;36.95;9.32;;;;;;;;;;5017488;28;20033;-69
2023/07/16 02:30:51;;;;;;;37.38;9.27;;;;;;;;;;5032208;28;20143;-74
2023/07/16 02:33:16;;;;;;;32.13;8.90;;;;;;;;;;5048337;28;20680;-73
2023/07/16 02:35:46;;;;;;;31.63;9.15;;;;;;;;;;5016512;28;20037;-76
2023/07/16 02:38:11;;;;;;;29.05;8.90;;;;;;;;;;5018723;28;20060;-70
2023/07/16 02:40:36;;;;;;;35.25;9.95;;;;;;;;;;5020358;28;20030;-72
2023/07/16 02:43:01;;;;;;;40.83;9.75;;;;;;;;;;5018225;28;20462;-72
2023/07/16 02:45:29;;;;;;;31.13;9.18;;;;;;;;;;5022426;28;20033;-70
2023/07/16 02:47:54;;;;;;;32.63;9.20;;;;;;;;;;5019441;28;20033;-70
2023/07/16 02:50:23;;;;;;;36.80;8.50;;;;;;;;;;5019030;28;20044;-71
2023/07/16 02:52:48;;;;;;;33.97;9.15;;;;;;;;;;5016528;28;20480;-70
2023/07/16 02:55:16;;;;;;;29.63;8.73;;;;;;;;;;5019388;28;20044;-72
2023/07/16 02:57:42;;;;;;;38.78;9.98;;;;;;;;;;5017299;28;20041;-71
2023/07/16 03:00:08;;;;;;;37.63;9.65;;;;;;;;;;5016469;28;20039;-72
2023/07/16 03:02:35;;;;;;;31.77;8.57;;;;;;;;;;5016984;28;20068;-72
2023/07/16 03:05:01;;;;;;;32.55;8.20;;;;;;;;;;5019497;28;20028;-71
2023/07/16 03:07:26;;;;;;;40.00;9.57;;;;;;;;;;5017845;28;20103;-73
2023/07/16 03:09:51;;;;;;;37.95;8.80;;;;;;;;;;5017569;28;20044;-72
2023/07/16 03:12:17;;;;;;;38.13;9.15;;;;;;;;;;5014014;28;20041;-71
2023/07/16 03:14:43;;;;;;;30.27;6.53;;;;;;;;;;5025604;28;20039;-68
2023/07/16 03:17:08;;;;;;;27.48;6.25;;;;;;;;;;5039074;28;20895;-70
2023/07/16 03:19:33;;;;;;;29.60;6.15;;;;;;;;;;5048343;28;20032;-71
2023/07/16 03:21:59;;;;;;;34.50;7.55;;;;;;;;;;5033208;28;20057;-70
2023/07/16 03:24:24;;;;;;;29.92;6.93;;;;;;;;;;5023604;28;20040;-70
2023/07/16 03:26:49;;;;;;;32.35;7.70;;;;;;;;;;5035389;28;20036;-68
2023/07/16 03:29:15;;;;;;;42.15;8.43;;;;;;;;;;5023232;28;21024;-71
2023/07/16 03:31:40;;;;;;;41.30;8.80;;;;;;;;;;5047801;28;20071;-70
2023/07/16 03:34:06;;;;;;;38.63;8.70;;;;;;;;;;5018321;28;20052;-72
2023/07/16 03:36:34;;;;;;;32.05;7.45;;;;;;;;;;5015049;28;20541;-72
2023/07/16 03:38:59;;;;;;;35.20;8.05;;;;;;;;;;5018261;28;20098;-70
2023/07/16 03:41:24;;;;;;;40.42;7.60;;;;;;;;;;5048126;28;20082;-68
2023/07/16 03:43:50;;;;;;;35.67;7.85;;;;;;;;;;5019056;28;20037;-73
2023/07/16 03:46:17;;;;;;;45.45;9.52;;;;;;;;;;5025939;28;20472;-71
2023/07/16 03:48:45;;;;;;;32.28;7.80;;;;;;;;;;5005832;28;20059;-72
2023/07/16 03:51:10;;;;;;;35.90;8.30;;;;;;;;;;5022465;28;20038;-72
2023/07/16 03:53:36;;;;;;;31.65;7.00;;;;;;;;;;5012551;28;20045;-70
2023/07/16 03:56:01;;;;;;;33.30;7.30;;;;;;;;;;5024757;28;20130;-70
2023/07/16 03:58:29;;;;;;;31.85;6.90;;;;;;;;;;5017132;28;20037;-71
2023/07/16 04:00:54;;;;;;;34.72;7.47;;;;;;;;;;5016693;28;20041;-77
2023/07/16 04:03:20;;;;;;;37.80;7.70;;;;;;;;;;5019844;28;22156;-71
2023/07/16 04:05:45;;;;;;;33.03;7.22;;;;;;;;;;5016657;28;20547;-68
2023/07/16 04:08:10;;;;;;;34.15;7.88;;;;;;;;;;5013018;28;20044;-70
2023/07/16 04:10:36;;;;;;;31.50;7.40;;;;;;;;;;5017418;28;20159;-72
2023/07/16 04:13:01;;;;;;;35.13;7.25;;;;;;;;;;5016241;28;20037;-72
2023/07/16 04:15:26;;;;;;;35.08;7.55;;;;;;;;;;5018936;28;20041;-70
2023/07/16 04:17:52;;;;;;;41.38;8.68;;;;;;;;;;5046017;28;20033;-75
2023/07/16 04:20:17;;;;;;;32.25;6.78;;;;;;;;;;5012752;28;20040;-73
2023/07/16 04:22:42;;;;;;;37.03;7.70;;;;;;;;;;5018112;28;20048;-72
2023/07/16 04:25:14;;;;;;;34.35;7.68;;;;;;;;;;5015827;28;20036;-70
2023/07/16 04:27:41;;;;;;;40.22;8.57;;;;;;;;;;5014427;28;20067;-72
2023/07/16 04:30:07;;;;;;;33.97;7.88;;;;;;;;;;5016770;28;20029;-71
2023/07/16 04:32:32;;;;;;;30.80;8.07;;;;;;;;;;5012316;28;20041;-74
2023/07/16 04:34:57;;;;;;;34.35;8.85;;;;;;;;;;5018451;28;20110;-73
2023/07/16 04:37:23;;;;;;;34.45;8.13;;;;;;;;;;5045867;28;20029;-72
2023/07/16 04:39:48;;;;;;;31.33;8.45;;;;;;;;;;5012045;28;20037;-72
2023/07/16 04:42:14;;;;;;;37.08;8.50;;;;;;;;;;5017370;28;20037;-74
2023/07/16 04:44:39;;;;;;;41.85;9.70;;;;;;;;;;5038245;28;20044;-74
2023/07/16 04:47:04;;;;;;;37.85;9.50;;;;;;;;;;5048214;28;20091;-73
2023/07/16 04:49:30;;;;;;;33.80;8.35;;;;;;;;;;5035394;28;20040;-70
2023/07/16 04:51:55;;;;;;;36.42;9.07;;;;;;;;;;5017302;28;20041;-72
2023/07/16 04:54:20;;;;;;;34.00;9.07;;;;;;;;;;5018941;28;20086;-70
2023/07/16 04:56:46;;;;;;;33.60;9.05;;;;;;;;;;5017605;28;20041;-69
2023/07/16 04:59:11;;;;;;;32.95;8.38;;;;;;;;;;5017356;28;20033;-71
2023/07/16 05:01:36;;;;;;;31.98;7.57;;;;;;;;;;5016360;28;22239;-72
2023/07/16 05:04:02;;;;;;;27.83;7.10;;;;;;;;;;5003618;28;20041;-69
2023/07/16 05:06:27;;;;;;;26.55;6.68;;;;;;;;;;4996751;28;20040;-73
2023/07/16 05:08:52;;;;;;;33.45;9.65;;;;;;;;;;4997295;28;20040;-73
2023/07/16 05:11:21;;;;;;;33.50;10.15;;;;;;;;;;5037953;28;20504;-73
2023/07/16 05:13:46;;;;;;;33.25;9.80;;;;;;;;;;5014568;28;20091;-73
2023/07/16 05:16:14;;;;;;;30.52;8.88;;;;;;;;;;5013868;28;20531;-73
2023/07/16 05:18:40;;;;;;;29.77;8.70;;;;;;;;;;5018163;28;20044;-72
2023/07/16 05:21:05;;;;;;;31.55;9.90;;;;;;;;;;5011102;28;20064;-73
2023/07/16 05:23:31;;;;;;;29.85;8.82;;;;;;;;;;5016351;28;20073;-74
2023/07/16 05:25:56;;;;;;;35.15;10.10;;;;;;;;;;5030905;28;20091;-73
2023/07/16 05:28:21;;;;;;;41.00;9.02;;;;;;;;;;5014920;28;20737;-72
2023/07/16 05:30:47;;;;;;;31.15;5.68;;;;;;;;;;5017448;28;20033;-71
2023/07/16 05:33:12;;;;;;;29.58;5.60;;;;;;;;;;5032139;28;20041;-70
2023/07/16 05:35:41;;;;;;;29.58;6.65;;;;;;;;;;5014889;28;20037;-72
2023/07/16 05:38:07;;;;;;;31.40;6.05;;;;;;;;;;5015772;28;20037;-67
2023/07/16 05:40:32;;;;;;;36.17;7.05;;;;;;;;;;5053334;28;20496;-68
2023/07/16 05:42:57;;;;;;;30.75;6.40;;;;;;;;;;5017898;28;20120;-71
2023/07/16 05:45:23;;;;;;;36.05;8.15;;;;;;;;;;5004273;28;20117;-70
2023/07/16 05:47:48;;;;;;;38.30;7.30;;;;;;;;;;5013937;28;20061;-68
2023/07/16 05:50:14;;;;;;;33.63;6.70;;;;;;;;;;5016392;28;20124;-68
2023/07/16 05:52:48;;;;;;;38.53;7.78;;;;;;;;;;5028301;28;20642;-70
2023/07/16 05:55:13;;;;;;;27.83;5.80;;;;;;;;;;4996548;28;20123;-71
2023/07/16 05:57:39;;;;;;;34.00;8.43;;;;;;;;;;5008465;28;20061;-68
2023/07/16 06:00:07;;;;;;;26.13;8.40;;;;;;;;;;5017604;28;20532;-67
2023/07/16 06:02:32;;;;;;;41.05;10.05;;;;;;;;;;5015275;28;20037;-71
2023/07/16 06:04:57;;;;;;;27.35;9.40;;;;;;;;;;5027852;28;20043;-68
2023/07/16 06:07:23;;;;;;;23.88;8.45;;;;;;;;;;5016695;28;20037;-70
2023/07/16 06:09:51;;;;;;;28.15;7.82;;;;;;;;;;5019551;28;20118;-71
2023/07/16 06:12:16;;;;;;;28.80;9.68;;;;;;;;;;5016237;28;20045;-69
2023/07/16 06:14:41;;;;;;;23.00;8.07;;;;;;;;;;5018039;28;20055;-67
2023/07/16 06:17:07;;;;;;;27.52;8.88;;;;;;;;;;5048457;28;20041;-70
2023/07/16 06:19:32;;;;;;;29.40;8.63;;;;;;;;;;5018041;28;20139;-72
2023/07/16 06:21:58;;;;;;;32.83;9.73;;;;;;;;;;5013664;28;20076;-70
2023/07/16 06:24:23;;;;;;;50.22;12.00;;;;;;;;;;5017006;28;20607;-69
2023/07/16 06:26:48;;;;;;;68.38;15.20;;;;;;;;;;5036505;28;20041;-79
2023/07/16 06:29:14;;;;;;;50.33;11.82;;;;;;;;;;5006550;28;20118;-83
2023/07/16 06:31:42;;;;;;;43.30;10.00;;;;;;;;;;5046104;28;20108;-75
2023/07/16 06:34:07;;;;;;;49.63;11.60;;;;;;;;;;5027352;28;20045;-73
2023/07/16 06:36:34;;;;;;;47.55;11.93;;;;;;;;;;5021238;28;20061;-78
2023/07/16 06:39:04;;;;;;;58.47;14.23;;;;;;;;;;5026175;28;20090;-74
2023/07/16 06:41:30;;;;;;;47.60;12.82;;;;;;;;;;5028703;28;20725;-74
2023/07/16 06:43:55;;;;;;;41.33;12.23;;;;;;;;;;5063684;28;20055;-74
2023/07/16 06:46:20;;;;;;;45.53;13.23;;;;;;;;;;5026921;28;20033;-75
2023/07/16 06:48:46;;;;;;;43.65;11.48;;;;;;;;;;5004522;28;20033;-75
2023/07/16 06:51:11;;;;;;;32.72;10.90;;;;;;;;;;5016020;28;20109;-75
2023/07/16 06:53:36;;;;;;;43.33;11.88;;;;;;;;;;5015832;28;20033;-73
2023/07/16 06:56:02;;;;;;;39.97;10.70;;;;;;;;;;5019855;28;20119;-76
2023/07/16 06:58:30;;;;;;;36.78;10.25;;;;;;;;;;5014922;28;20077;-78
2023/07/16 07:00:56;;;;;;;30.45;9.52;;;;;;;;;;4987201;28;20052;-74
2023/07/16 07:03:21;;;;;;;32.22;9.55;;;;;;;;;;5019967;28;20049;-76
2023/07/16 07:05:46;;;;;;;36.72;8.93;;;;;;;;;;5003492;28;20516;-77
2023/07/16 07:08:12;;;;;;;33.53;8.93;;;;;;;;;;5004047;28;20100;-77
2023/07/16 07:10:39;;;;;;;34.17;9.52;;;;;;;;;;5000630;28;20038;-74
2023/07/16 07:13:04;;;;;;;35.28;9.18;;;;;;;;;;5003881;28;20096;-77
2023/07/16 07:15:32;;;;;;;34.47;8.30;;;;;;;;;;4997630;28;20033;-76
2023/07/16 07:17:57;;;;;;;36.95;9.43;;;;;;;;;;4998692;28;20076;-75
2023/07/16 07:20:23;;;;;;;28.42;8.50;;;;;;;;;;5002671;28;20083;-74
2023/07/16 07:22:48;;;;;;;32.55;7.35;;;;;;;;;;5014516;28;20052;-75
2023/07/16 07:25:13;;;;;;;36.03;8.25;;;;;;;;;;4994422;28;20122;-74
2023/07/16 07:27:39;;;;;;;38.22;9.38;;;;;;;;;;4999450;28;20033;-75
2023/07/16 07:30:04;;;;;;;37.60;9.95;;;;;;;;;;5015981;28;20713;-72
2023/07/16 07:32:29;;;;;;;33.65;9.85;;;;;;;;;;4999082;28;22396;-71
2023/07/16 07:34:57;;;;;;;25.40;9.77;;;;;;;;;;4995559;28;20029;-75
2023/07/16 07:37:22;;;;;;;35.22;9.77;;;;;;;;;;4998293;28;20038;-75
2023/07/16 07:39:52;;;;;;;27.08;10.07;;;;;;;;;;4999745;28;20677;-73
2023/07/16 07:42:20;;;;;;;33.28;10.77;;;;;;;;;;4995866;28;20132;-74
2023/07/16 07:44:45;;;;;;;37.78;10.20;;;;;;;;;;5011967;28;20033;-75
2023/07/16 07:47:13;;;;;;;32.08;10.10;;;;;;;;;;5021017;28;20630;-72
2023/07/16 07:49:38;;;;;;;34.35;9.98;;;;;;;;;;5019295;28;20087;-75
2023/07/16 07:52:05;;;;;;;29.63;9.77;;;;;;;;;;5021999;28;20066;-74
2023/07/16 07:54:31;;;;;;;24.88;9.43;;;;;;;;;;5020836;28;20037;-74
2023/07/16 07:56:56;;;;;;;30.98;9.55;;;;;;;;;;5017653;28;20037;-72
2023/07/16 07:59:21;;;;;;;28.67;9.27;;;;;;;;;;5017537;28;20397;-74
2023/07/16 08:01:47;;;;;;;26.33;9.70;;;;;;;;;;5017675;28;20049;-74
2023/07/16 08:04:12;;;;;;;25.23;8.27;;;;;;;;;;5001075;28;20552;-74
2023/07/16 08:06:37;;;;;;;26.98;8.65;;;;;;;;;;5017467;28;20033;-74
2023/07/16 08:09:02;;;;;;;27.35;9.05;;;;;;;;;;5015396;28;20041;-71
2023/07/16 08:11:28;;;;;;;22.10;8.30;;;;;;;;;;5004681;28;20048;-71
2023/07/16 08:13:53;;;;;;;32.60;8.38;;;;;;;;;;4996924;28;20103;-71
2023/07/16 08:16:18;;;;;;;23.63;7.57;;;;;;;;;;4989892;28;20037;-70
2023/07/16 08:18:44;;;;;;;24.60;8.50;;;;;;;;;;4989024;28;20033;-70
2023/07/16 08:21:09;;;;;;;28.05;7.95;;;;;;;;;;4993155;28;20073;-69
2023/07/16 08:23:34;;;;;;;31.90;8.00;;;;;;;;;;4995099;28;20041;-73
2023/07/16 08:26:00;;;;;;;27.38;7.35;;;;;;;;;;4982695;28;20516;-70
2023/07/16 08:28:25;;;;;;;26.10;7.22;;;;;;;;;;5007146;28;20579;-70
2023/07/16 08:30:50;;;;;;;23.08;6.75;;;;;;;;;;5010625;28;20036;-71
2023/07/16 08:33:18;;;;;;;24.40;7.53;;;;;;;;;;5010513;28;20490;-72
2023/07/16 08:35:43;;;;;;;28.92;7.22;;;;;;;;;;5011217;28;20482;-71
2023/07/16 08:38:11;;;;;;;24.60;7.57;;;;;;;;;;5011358;28;21599;-71
2023/07/16 08:40:41;;;;;;;25.75;7.43;;;;;;;;;;5010181;28;20678;-73
2023/07/16 08:43:10;;;;;;;24.38;7.53;;;;;;;;;;5011644;28;20048;-73
2023/07/16 08:45:39;;;;;;;27.98;7.65;;;;;;;;;;5010644;28;20248;-71
2023/07/16 08:48:05;;;;;;;23.40;7.25;;;;;;;;;;5008509;28;20182;-69
2023/07/16 08:50:30;;;;;;;21.17;6.32;;;;;;;;;;5002680;28;20565;-71
2023/07/16 08:52:57;;;;;;;22.67;6.22;;;;;;;;;;5013127;28;20294;-71
2023/07/16 08:55:24;;;;;;;26.35;7.43;;;;;;;;;;5016474;28;20045;-70
2023/07/16 08:57:50;;;;;;;21.42;7.43;;;;;;;;;;5046340;28;20061;-72
2023/07/16 09:00:15;;;;;;;29.83;8.05;;;;;;;;;;5014839;28;20030;-70
2023/07/16 09:02:41;;;;;;;21.25;6.35;;;;;;;;;;5013725;28;20462;-71
2023/07/16 09:05:07;;;;;;;20.23;6.13;;;;;;;;;;5028730;28;20033;-70
2023/07/16 09:07:32;;;;;;;23.58;6.65;;;;;;;;;;5014982;28;20177;-70
2023/07/16 09:10:00;;;;;;;25.55;6.95;;;;;;;;;;5013485;28;20098;-71
2023/07/16 09:12:25;;;;;;;23.77;6.82;;;;;;;;;;5017853;28;20088;-70
2023/07/16 09:14:51;;;;;;;24.95;7.00;;;;;;;;;;5011361;28;20065;-72
2023/07/16 09:17:20;;;;;;;22.52;6.40;;;;;;;;;;5015248;28;20041;-70
2023/07/16 09:19:48;;;;;;;31.50;7.07;;;;;;;;;;5013021;28;20045;-70
2023/07/16 09:22:13;;;;;;;27.08;7.25;;;;;;;;;;5014156;28;20535;-69
2023/07/16 09:24:39;;;;;;;19.45;7.60;;;;;;;;;;5014473;28;20041;-68
2023/07/16 09:27:04;;;;;;;30.85;8.50;;;;;;;;;;4992682;28;20046;-74
2023/07/16 09:29:29;;;;;;;24.08;6.65;;;;;;;;;;5002322;28;20034;-68
2023/07/16 09:32:02;;;;;;;22.88;6.85;;;;;;;;;;5017465;28;20520;-71
2023/07/16 09:34:30;;;;;;;21.50;6.68;;;;;;;;;;5014645;28;21968;-71
2023/07/16 09:36:56;;;;;;;17.55;6.15;;;;;;;;;;5012875;28;20037;-71
2023/07/16 09:39:22;;;;;;;22.98;7.03;;;;;;;;;;5016736;28;20060;-69
2023/07/16 09:41:48;;;;;;;26.55;6.63;;;;;;;;;;5017922;28;20041;-74
2023/07/16 09:44:14;;;;;;;22.52;6.03;;;;;;;;;;5015816;28;21133;-71
2023/07/16 09:46:39;;;;;;;19.30;6.05;;;;;;;;;;5013869;28;20033;-73
2023/07/16 09:49:05;;;;;;;20.25;5.40;;;;;;;;;;5008093;28;20174;-68
2023/07/16 09:51:32;;;;;;;21.92;5.85;;;;;;;;;;5005687;28;20037;-69
2023/07/16 09:54:00;;;;;;;21.23;6.07;;;;;;;;;;5015975;28;20060;-68
2023/07/16 09:56:31;;;;;;;25.58;5.90;;;;;;;;;;5009802;28;20045;-69
2023/07/16 09:58:59;;;;;;;25.23;5.85;;;;;;;;;;5005602;28;20631;-70
2023/07/16 10:01:25;;;;;;;28.02;6.60;;;;;;;;;;5011335;28;20041;-70
2023/07/16 10:03:51;;;;;;;27.95;6.40;;;;;;;;;;5008997;28;20033;-72
2023/07/16 10:06:16;;;;;;;19.27;5.15;;;;;;;;;;5046144;28;20047;-73
2023/07/16 10:08:48;;;;;;;32.50;7.00;;;;;;;;;;5013603;28;20055;-72
2023/07/16 10:11:17;;;;;;;29.88;6.82;;;;;;;;;;5013113;28;22203;-71
2023/07/16 10:13:43;;;;;;;30.50;7.15;;;;;;;;;;5047445;28;20052;-71
2023/07/16 10:16:11;;;;;;;28.77;6.50;;;;;;;;;;5014290;28;20041;-72
2023/07/16 10:18:37;;;;;;;29.67;7.55;;;;;;;;;;5012465;28;20460;-70
2023/07/16 10:21:02;;;;;;;22.30;6.40;;;;;;;;;;5014246;28;20064;-70
2023/07/16 10:23:36;;;;;;;20.38;6.38;;;;;;;;;;5015098;28;22296;-72
2023/07/16 10:26:05;;;;;;;21.05;5.63;;;;;;;;;;5015253;28;20033;-71
2023/07/16 10:28:31;;;;;;;23.08;5.85;;;;;;;;;;5006852;28;20121;-70
2023/07/16 10:30:59;;;;;;;27.60;6.68;;;;;;;;;;4995698;28;20079;-70
2023/07/16 10:33:25;;;;;;;24.50;6.40;;;;;;;;;;5012997;28;20045;-70
2023/07/16 10:35:53;;;;;;;26.98;6.55;;;;;;;;;;5015111;28;20079;-73
2023/07/16 10:38:18;;;;;;;24.00;6.00;;;;;;;;;;5026107;28;20037;-70
2023/07/16 10:40:46;;;;;;;22.90;5.75;;;;;;;;;;5027294;28;20043;-69
2023/07/16 10:43:12;;;;;;;20.02;5.70;;;;;;;;;;5012923;28;20029;-71
2023/07/16 10:45:37;;;;;;;22.08;5.13;;;;;;;;;;5016436;28;20029;-75
2023/07/16 10:48:03;;;;;;;23.23;5.38;;;;;;;;;;5015338;28;20835;-73
2023/07/16 10:50:28;;;;;;;24.15;5.85;;;;;;;;;;5013154;28;20513;-75
2023/07/16 10:52:54;;;;;;;22.73;5.47;;;;;;;;;;5011165;28;20030;-72
2023/07/16 10:55:20;;;;;;;22.73;4.50;;;;;;;;;;5012294;28;22311;-73
2023/07/16 10:57:49;;;;;;;29.63;5.13;;;;;;;;;;5010377;28;20025;-73
2023/07/16 11:00:15;;;;;;;30.42;5.00;;;;;;;;;;5040092;28;20029;-78
2023/07/16 11:02:41;;;;;;;28.05;5.53;;;;;;;;;;5009829;28;20140;-72
2023/07/16 11:05:09;;;;;;;21.42;4.57;;;;;;;;;;5015584;28;20083;-68
2023/07/16 11:07:34;;;;;;;25.55;4.03;;;;;;;;;;5016833;28;20038;-73
2023/07/16 11:10:02;;;;;;;23.90;4.10;;;;;;;;;;5012356;28;20033;-70
2023/07/16 11:12:28;;;;;;;24.95;5.07;;;;;;;;;;4993644;28;25425;-68
2023/07/16 11:14:55;;;;;;;24.80;4.50;;;;;;;;;;5010655;28;20173;-73
2023/07/16 11:17:22;;;;;;;24.65;4.50;;;;;;;;;;5016036;28;20633;-71
2023/07/16 11:19:48;;;;;;;27.85;5.43;;;;;;;;;;5011725;28;20935;-69
2023/07/16 11:22:14;;;;;;;23.27;4.47;;;;;;;;;;5008319;28;20037;-70
2023/07/16 11:24:41;;;;;;;23.02;4.25;;;;;;;;;;5040841;28;20282;-68
2023/07/16 11:27:12;;;;;;;23.20;4.57;;;;;;;;;;5009178;28;20504;-68
2023/07/16 11:29:38;;;;;;;26.10;4.13;;;;;;;;;;5011456;28;20033;-72
2023/07/16 11:32:03;;;;;;;24.67;4.65;;;;;;;;;;5040360;28;20032;-71
2023/07/16 11:34:29;;;;;;;32.20;5.32;;;;;;;;;;5007308;28;20037;-67
2023/07/16 11:36:54;;;;;;;27.15;4.70;;;;;;;;;;5009784;28;20151;-70
2023/07/16 11:39:24;;;;;;;27.75;5.65;;;;;;;;;;5039665;28;20040;-73
2023/07/16 11:41:57;;;;;;;24.80;4.97;;;;;;;;;;5011811;28;20148;-67
2023/07/16 11:44:23;;;;;;;24.50;4.35;;;;;;;;;;4995923;28;20037;-70
2023/07/16 11:46:48;;;;;;;25.88;4.07;;;;;;;;;;4991198;28;20979;-68
2023/07/16 11:49:16;;;;;;;26.73;4.55;;;;;;;;;;4994142;28;20968;-70
2023/07/16 11:51:43;;;;;;;30.33;4.85;;;;;;;;;;5010700;28;20034;-71
2023/07/16 11:54:10;;;;;;;25.80;4.32;;;;;;;;;;4985846;28;20044;-69
2023/07/16 11:56:35;;;;;;;31.08;4.40;;;;;;;;;;5002935;28;21176;-73
2023/07/16 11:59:00;;;;;;;24.05;4.85;;;;;;;;;;4998464;28;20033;-69
2023/07/16 12:01:26;;;;;;;26.88;5.05;;;;;;;;;;5007122;28;20132;-66
2023/07/16 12:03:51;;;;;;;26.35;4.68;;;;;;;;;;5009768;28;20943;-68
2023/07/16 12:06:16;;;;;;;24.80;4.70;;;;;;;;;;5009198;28;20033;-67
2023/07/16 12:08:42;;;;;;;31.30;4.80;;;;;;;;;;5006625;28;20037;-69
2023/07/16 12:11:07;;;;;;;27.40;4.70;;;;;;;;;;5039745;28;20029;-68
2023/07/16 12:13:32;;;;;;;31.95;4.95;;;;;;;;;;5010210;28;20049;-69
2023/07/16 12:15:58;;;;;;;34.45;4.72;;;;;;;;;;5009070;28;20033;-67
2023/07/16 12:18:23;;;;;;;22.38;4.53;;;;;;;;;;5040060;28;20384;-69
2023/07/16 12:20:48;;;;;;;29.15;5.10;;;;;;;;;;5009142;28;20033;-68
2023/07/16 12:23:16;;;;;;;29.02;4.68;;;;;;;;;;5011715;28;20553;-68
2023/07/16 12:25:43;;;;;;;32.88;5.40;;;;;;;;;;4995297;28;20030;-67
2023/07/16 12:28:08;;;;;;;30.75;4.72;;;;;;;;;;5003924;28;20079;-67
2023/07/16 12:30:34;;;;;;;32.38;4.75;;;;;;;;;;5015289;28;20167;-72
2023/07/16 12:33:03;;;;;;;34.72;4.88;;;;;;;;;;5013525;28;20025;-67
2023/07/16 12:35:29;;;;;;;32.70;5.32;;;;;;;;;;5014764;28;20082;-67
2023/07/16 12:37:54;;;;;;;29.95;4.82;;;;;;;;;;5011512;28;20848;-69
2023/07/16 12:40:19;;;;;;;34.00;5.13;;;;;;;;;;5010854;28;20122;-68
2023/07/16 12:42:45;;;;;;;43.85;6.05;;;;;;;;;;5014732;28;20049;-66
2023/07/16 12:45:10;;;;;;;39.50;5.13;;;;;;;;;;5013473;28;20156;-72
2023/07/16 12:47:38;;;;;;;27.23;4.85;;;;;;;;;;5012292;28;20037;-68
2023/07/16 12:50:03;;;;;;;30.15;4.60;;;;;;;;;;5020141;28;20773;-68
2023/07/16 12:52:29;;;;;;;29.08;4.90;;;;;;;;;;5041563;28;20041;-70
2023/07/16 12:54:54;;;;;;;49.88;5.22;;;;;;;;;;5009700;28;20167;-68
2023/07/16 12:57:22;;;;;;;36.25;5.03;;;;;;;;;;5040048;28;20110;-71
2023/07/16 12:59:48;;;;;;;34.83;5.35;;;;;;;;;;5011871;28;20036;-72
2023/07/16 13:02:13;;;;;;;33.00;4.85;;;;;;;;;;4997540;28;20091;-66
2023/07/16 13:04:39;;;;;;;28.95;4.50;;;;;;;;;;5003265;28;20034;-68
2023/07/16 13:07:07;;;;;;;32.38;4.93;;;;;;;;;;5008999;28;20553;-74
2023/07/16 13:09:32;;;;;;;33.00;4.90;;;;;;;;;;5010334;28;20128;-71
2023/07/16 13:11:57;;;;;;;43.70;5.45;;;;;;;;;;5010632;28;20047;-70
2023/07/16 13:14:23;;;;;;;37.05;5.07;;;;;;;;;;4992660;28;20048;-68
2023/07/16 13:16:48;;;;;;;35.20;4.90;;;;;;;;;;5006562;28;20536;-65
2023/07/16 13:19:14;;;;;;;29.05;5.15;;;;;;;;;;5008283;28;20068;-68
2023/07/16 13:21:39;;;;;;;37.30;5.72;;;;;;;;;;5010751;28;20055;-68
2023/07/16 13:24:04;;;;;;;32.65;5.32;;;;;;;;;;5011267;28;20058;-68
2023/07/16 13:26:30;;;;;;;37.90;5.05;;;;;;;;;;5010933;28;20036;-68
2023/07/16 13:28:55;;;;;;;38.20;5.28;;;;;;;;;;5009055;28;20047;-67
2023/07/16 13:31:20;;;;;;;33.88;4.85;;;;;;;;;;5009239;28;20561;-66
2023/07/16 13:33:46;;;;;;;40.58;5.85;;;;;;;;;;5004889;28;20042;-67
2023/07/16 13:36:11;;;;;;;37.47;6.07;;;;;;;;;;5008687;28;20041;-68
2023/07/16 13:38:38;;;;;;;32.20;4.97;;;;;;;;;;5012532;28;20083;-69
2023/07/16 13:41:04;;;;;;;33.20;5.43;;;;;;;;;;5011892;28;20171;-70
2023/07/16 13:43:29;;;;;;;47.53;5.93;;;;;;;;;;5039596;28;20600;-67
2023/07/16 13:45:55;;;;;;;38.67;4.82;;;;;;;;;;5041335;28;25195;-69
2023/07/16 13:48:20;;;;;;;36.80;4.95;;;;;;;;;;5024481;28;20052;-70
2023/07/16 13:50:45;;;;;;;38.67;4.97;;;;;;;;;;5006896;28;20037;-66
2023/07/16 13:53:11;;;;;;;36.72;4.90;;;;;;;;;;5008742;28;20075;-72
2023/07/16 13:55:36;;;;;;;35.92;4.82;;;;;;;;;;5001996;28;20858;-69
2023/07/16 13:58:01;;;;;;;39.38;5.03;;;;;;;;;;5022439;28;20049;-67
2023/07/16 14:00:26;;;;;;;41.22;5.82;;;;;;;;;;4998862;28;20072;-72
2023/07/16 14:02:52;;;;;;;30.30;4.78;;;;;;;;;;5025408;28;20132;-70
2023/07/16 14:05:17;;;;;;;32.20;4.57;;;;;;;;;;5011346;28;20433;-69
2023/07/16 14:07:43;;;;;;;26.23;4.43;;;;;;;;;;5013883;28;20177;-69
2023/07/16 14:10:08;;;;;;;34.47;4.68;;;;;;;;;;5031058;28;20033;-67
2023/07/16 14:12:34;;;;;;;37.63;5.45;;;;;;;;;;5009056;28;20156;-69
2023/07/16 14:15:00;;;;;;;35.28;5.07;;;;;;;;;;5011351;28;20045;-67
2023/07/16 14:17:25;;;;;;;30.23;4.70;;;;;;;;;;5009033;28;20112;-70
2023/07/16 14:19:52;;;;;;;33.55;5.20;;;;;;;;;;5010545;28;20029;-68
2023/07/16 14:22:18;;;;;;;42.25;4.57;;;;;;;;;;5022622;28;20166;-69